createdAt,value
2019-03-15T00:02:15.686Z,6.16
2019-03-15T00:04:52.338Z,6.32
2019-03-15T00:07:23.649Z,6.18
2019-03-15T00:09:55.388Z,6.05
2019-03-15T00:12:26.663Z,6.07
2019-03-15T00:14:59.287Z,6.03
2019-03-15T00:17:29.934Z,6.08
2019-03-15T00:20:09.254Z,6.07
2019-03-15T00:22:40.724Z,6.03
2019-03-15T00:25:11.911Z,6.00
2019-03-15T00:27:42.892Z,5.96
2019-03-15T00:30:13.958Z,5.91
2019-03-15T00:32:45.297Z,5.86
2019-03-15T00:35:18.983Z,5.84
2019-03-15T00:37:51.007Z,5.79
2019-03-15T00:40:21.586Z,5.72
2019-03-15T00:42:52.642Z,5.70
2019-03-15T00:45:23.326Z,5.79
2019-03-15T00:47:54.522Z,5.91
2019-03-15T00:50:31.994Z,5.94
2019-03-15T00:53:03.929Z,6.00
2019-03-15T00:55:37.120Z,6.02
2019-03-15T00:58:08.289Z,6.09
2019-03-15T01:00:39.624Z,6.08
2019-03-15T01:03:11.137Z,6.26
2019-03-15T01:05:43.024Z,6.31
2019-03-15T01:08:13.715Z,6.38
2019-03-15T01:10:45.552Z,6.39
2019-03-15T01:13:16.693Z,6.51
2019-03-15T01:15:48.279Z,6.53
2019-03-15T01:18:20.277Z,6.54
2019-03-15T01:20:51.883Z,6.60
2019-03-15T01:23:23.479Z,6.49
2019-03-15T01:25:55.680Z,6.58
2019-03-15T01:28:26.768Z,6.53
2019-03-15T01:30:58.083Z,6.48
2019-03-15T01:33:30.068Z,6.65
2019-03-15T01:36:01.835Z,6.72
2019-03-15T01:38:35.250Z,6.77
2019-03-15T01:41:07.013Z,6.82
2019-03-15T01:43:40.600Z,6.87
2019-03-15T01:46:12.050Z,6.84
2019-03-15T01:48:44.301Z,6.95
2019-03-15T01:51:16.000Z,6.98
2019-03-15T01:53:48.424Z,6.88
2019-03-15T01:56:57.684Z,6.92
2019-03-15T01:59:31.785Z,6.83
2019-03-15T03:01:53.730Z,6.13
2019-03-15T03:04:26.546Z,6.14
2019-03-15T03:06:58.322Z,6.13
2019-03-15T03:09:29.460Z,6.11
2019-03-15T03:12:03.735Z,6.12
2019-03-15T03:14:35.258Z,6.07
2019-03-15T03:17:06.368Z,6.09
2019-03-15T03:19:38.024Z,6.14
2019-03-15T03:22:09.434Z,6.21
2019-03-15T03:24:40.683Z,6.22
2019-03-15T03:27:14.819Z,6.18
2019-03-15T03:29:48.535Z,6.27
2019-03-15T03:32:19.946Z,6.28
2019-03-15T03:34:51.741Z,6.29
2019-03-15T03:37:24.207Z,6.34
2019-03-15T03:39:54.871Z,6.38
2019-03-15T03:42:26.551Z,6.38
2019-03-15T03:44:57.564Z,6.47
2019-03-15T03:47:27.858Z,6.56
2019-03-15T03:49:59.099Z,6.79
2019-03-15T03:52:31.080Z,6.91
2019-03-15T03:55:01.720Z,7.11
2019-03-15T03:57:32.978Z,7.29
2019-03-15T04:00:06.063Z,7.21
2019-03-15T04:02:37.388Z,7.30
2019-03-15T04:05:08.496Z,7.30
2019-03-15T04:07:40.411Z,7.32
2019-03-15T04:10:13.953Z,7.32
2019-03-15T04:12:45.054Z,7.40
2019-03-15T04:15:16.235Z,7.44
2019-03-15T04:17:47.221Z,7.46
2019-03-15T04:20:18.398Z,7.58
2019-03-15T04:22:49.117Z,7.64
2019-03-15T04:25:20.442Z,7.66
2019-03-15T04:27:51.738Z,7.63
2019-03-15T04:30:23.237Z,7.57
2019-03-15T04:32:54.390Z,7.51
2019-03-15T04:35:28.821Z,7.36
2019-03-15T04:38:00.672Z,7.23
2019-03-15T04:40:32.042Z,7.22
2019-03-15T04:43:02.691Z,7.24
2019-03-15T04:45:34.505Z,7.21
2019-03-15T04:48:05.714Z,7.17
2019-03-15T04:50:37.215Z,7.21
2019-03-15T04:53:16.010Z,7.31
2019-03-15T04:55:47.480Z,7.39
2019-03-15T04:58:17.873Z,7.38
2019-03-15T05:00:49.788Z,7.39
2019-03-15T05:03:21.616Z,7.75
2019-03-15T05:06:03.266Z,7.76
2019-03-15T05:08:26.722Z,7.68
2019-03-15T05:11:01.104Z,7.80
2019-03-15T05:13:32.950Z,8.01
2019-03-15T05:16:04.664Z,8.07
2019-03-15T05:18:35.037Z,8.03
2019-03-15T05:21:05.861Z,7.99
2019-03-15T05:23:37.651Z,8.06
2019-03-15T05:26:09.240Z,8.01
2019-03-15T05:28:40.708Z,7.99
2019-03-15T05:31:12.412Z,7.97
2019-03-15T05:33:43.359Z,7.95
2019-03-15T05:36:14.942Z,8.02
2019-03-15T05:38:46.597Z,7.99
2019-03-15T05:41:17.902Z,7.89
2019-03-15T05:43:49.343Z,7.98
2019-03-15T05:46:19.980Z,7.98
2019-03-15T05:49:14.987Z,7.89
2019-03-15T05:51:46.175Z,7.90
2019-03-15T05:54:17.695Z,7.76
2019-03-15T05:56:48.667Z,7.74
2019-03-15T05:59:21.713Z,7.76
2019-03-15T06:01:53.836Z,7.78
2019-03-15T06:04:27.560Z,7.78
2019-03-15T06:06:58.899Z,7.81
2019-03-15T06:09:31.461Z,7.78
2019-03-15T06:12:02.952Z,7.77
2019-03-15T06:14:46.898Z,7.69
2019-03-15T06:17:18.137Z,7.64
2019-03-15T06:19:49.279Z,7.60
2019-03-15T06:22:20.400Z,7.67
2019-03-15T06:24:52.389Z,7.69
2019-03-15T06:27:24.298Z,7.60
2019-03-15T06:29:55.499Z,7.55
2019-03-15T06:32:26.248Z,7.68
2019-03-15T06:34:57.854Z,7.66
2019-03-15T06:37:28.711Z,7.69
2019-03-15T06:40:00.050Z,7.68
2019-03-15T06:42:31.649Z,7.72
2019-03-15T06:45:03.340Z,7.70
2019-03-15T06:47:33.945Z,7.69
2019-03-15T06:50:06.451Z,7.66
2019-03-15T06:52:39.529Z,7.73
2019-03-15T06:55:10.529Z,7.63
2019-03-15T06:57:42.122Z,7.64
2019-03-15T07:00:13.408Z,7.59
2019-03-15T07:02:46.050Z,7.63
2019-03-15T07:05:18.230Z,7.61
2019-03-15T07:07:49.290Z,7.58
2019-03-15T07:10:20.436Z,7.60
2019-03-15T07:12:53.461Z,7.66
2019-03-15T07:15:24.952Z,7.70
2019-03-15T07:17:56.253Z,7.59
2019-03-15T07:20:27.963Z,7.55
2019-03-15T07:22:59.429Z,7.58
2019-03-15T07:25:30.342Z,7.62
2019-03-15T07:28:01.306Z,7.57
2019-03-15T07:30:32.800Z,7.59
2019-03-15T07:33:04.356Z,7.59
2019-03-15T07:35:35.775Z,7.61
2019-03-15T07:38:06.482Z,7.62
2019-03-15T07:40:38.867Z,7.69
2019-03-15T07:43:10.445Z,7.62
2019-03-15T07:45:41.744Z,7.62
2019-03-15T07:48:22.497Z,7.64
2019-03-15T07:50:46.335Z,7.64
2019-03-15T07:53:17.855Z,7.69
2019-03-15T07:55:48.923Z,7.63
2019-03-15T07:58:20.005Z,7.59
2019-03-15T08:00:50.697Z,7.66
2019-03-15T08:03:23.369Z,7.75
2019-03-15T08:05:55.699Z,7.80
2019-03-15T08:08:27.236Z,7.86
2019-03-15T08:10:58.626Z,7.79
2019-03-15T08:13:30.027Z,7.94
2019-03-15T08:16:00.701Z,7.88
2019-03-15T08:18:33.485Z,7.83
2019-03-15T08:21:04.798Z,8.04
2019-03-15T08:23:35.089Z,7.99
2019-03-15T08:26:06.508Z,8.03
2019-03-15T08:28:37.248Z,8.07
2019-03-15T08:31:09.768Z,8.03
2019-03-15T08:33:40.761Z,8.06
2019-03-15T08:36:12.383Z,8.10
2019-03-15T08:38:47.784Z,8.11
2019-03-15T08:41:17.451Z,8.08
2019-03-15T08:43:48.788Z,8.15
2019-03-15T08:46:20.725Z,8.25
2019-03-15T08:48:52.882Z,8.27
2019-03-15T08:51:23.474Z,8.32
2019-03-15T08:53:55.123Z,8.34
2019-03-15T08:56:25.888Z,8.28
2019-03-15T08:58:57.812Z,8.31
2019-03-15T09:01:28.871Z,8.36
2019-03-15T09:04:00.655Z,8.52
2019-03-15T09:06:32.296Z,8.52
2019-03-15T09:09:04.246Z,8.60
2019-03-15T09:11:35.671Z,8.67
2019-03-15T09:14:06.428Z,8.80
2019-03-15T09:16:38.697Z,8.87
2019-03-15T09:19:10.152Z,8.96
2019-03-15T09:21:41.420Z,8.93
2019-03-15T09:24:12.428Z,9.08
2019-03-15T09:26:43.478Z,9.18
2019-03-15T09:29:14.487Z,9.22
2019-03-15T09:31:48.068Z,9.27
2019-03-15T09:34:19.235Z,9.20
2019-03-15T09:36:50.725Z,9.30
2019-03-15T09:39:22.332Z,9.37
2019-03-15T09:41:54.214Z,9.45
2019-03-15T09:44:25.516Z,9.47
2019-03-15T09:46:56.096Z,9.53
2019-03-15T09:49:29.531Z,9.50
2019-03-15T09:52:02.459Z,9.52
2019-03-15T09:54:34.055Z,9.61
2019-03-15T09:57:04.349Z,9.67
2019-03-15T09:59:36.428Z,9.76
2019-03-15T10:02:08.350Z,9.65
2019-03-15T10:04:39.781Z,9.73
2019-03-15T10:07:10.928Z,9.71
2019-03-15T10:09:46.230Z,9.82
2019-03-15T10:12:16.325Z,9.94
2019-03-15T10:14:49.768Z,9.91
2019-03-15T10:17:23.088Z,9.98
2019-03-15T10:19:54.982Z,9.93
2019-03-15T10:22:27.267Z,9.89
2019-03-15T10:24:59.050Z,9.89
2019-03-15T10:27:30.731Z,9.95
2019-03-15T10:30:02.023Z,9.98
2019-03-15T10:32:33.057Z,10.04
2019-03-15T10:35:04.500Z,9.98
2019-03-15T10:37:36.218Z,9.95
2019-03-15T10:40:10.868Z,9.90
2019-03-15T10:42:41.501Z,9.99
2019-03-15T10:45:12.534Z,9.92
2019-03-15T10:47:43.205Z,10.03
2019-03-15T10:50:13.985Z,9.93
2019-03-15T10:52:44.630Z,9.98
2019-03-15T10:55:16.300Z,9.97
2019-03-15T10:57:48.026Z,9.99
2019-03-15T11:00:19.645Z,10.00
2019-03-15T11:02:50.270Z,10.04
2019-03-15T11:05:20.904Z,10.05
2019-03-15T11:07:52.917Z,10.11
2019-03-15T11:10:23.978Z,10.16
2019-03-15T11:12:54.619Z,10.15
2019-03-15T11:15:25.610Z,10.23
2019-03-15T11:17:56.938Z,10.25
2019-03-15T11:20:28.601Z,10.30
2019-03-15T11:22:59.703Z,10.33
2019-03-15T11:25:32.208Z,10.38
2019-03-15T11:28:03.189Z,10.40
2019-03-15T11:30:34.886Z,10.39
2019-03-15T11:33:06.226Z,10.47
2019-03-15T11:35:37.248Z,10.50
2019-03-15T11:38:09.219Z,10.41
2019-03-15T11:40:40.481Z,10.42
2019-03-15T11:43:13.498Z,10.44
2019-03-15T11:45:44.886Z,10.52
2019-03-15T11:48:16.499Z,10.52
2019-03-15T11:50:47.105Z,10.56
2019-03-15T11:53:19.039Z,10.57
2019-03-15T11:55:50.396Z,10.57
2019-03-15T11:58:21.022Z,10.65
2019-03-15T12:00:51.344Z,10.54
2019-03-15T12:03:22.491Z,10.55
2019-03-15T12:05:54.461Z,10.67
2019-03-15T12:08:26.122Z,10.72
2019-03-15T12:10:57.535Z,10.65
2019-03-15T12:13:28.494Z,10.60
2019-03-15T12:16:26.917Z,10.67
2019-03-15T12:18:58.531Z,10.73
2019-03-15T12:21:29.957Z,10.69
2019-03-15T12:24:00.690Z,10.69
2019-03-15T12:26:40.350Z,10.77
2019-03-15T12:29:06.645Z,10.78
2019-03-15T12:31:39.100Z,10.88
2019-03-15T12:34:10.955Z,10.96
2019-03-15T12:36:42.716Z,10.78
2019-03-15T12:39:14.083Z,10.89
2019-03-15T12:41:44.844Z,11.01
2019-03-15T12:44:16.564Z,11.01
2019-03-15T12:46:47.938Z,10.99
2019-03-15T12:49:19.538Z,11.05
2019-03-15T12:51:50.775Z,11.07
2019-03-15T12:54:21.851Z,10.96
2019-03-15T12:56:54.224Z,10.99
2019-03-15T12:59:25.291Z,11.03
2019-03-15T13:01:56.889Z,11.07
2019-03-15T13:04:42.471Z,11.19
2019-03-15T13:07:13.230Z,11.26
2019-03-15T13:09:45.309Z,11.31
2019-03-15T13:12:16.631Z,11.36
2019-03-15T13:14:47.613Z,11.20
2019-03-15T13:17:23.877Z,11.20
2019-03-15T13:19:55.762Z,11.19
2019-03-15T13:22:26.171Z,11.07
2019-03-15T13:24:57.872Z,11.16
2019-03-15T13:27:28.906Z,11.13
2019-03-15T13:29:59.951Z,11.13
2019-03-15T13:32:32.095Z,11.12
2019-03-15T13:35:03.786Z,11.21
2019-03-15T13:37:35.160Z,11.13
2019-03-15T13:40:07.020Z,11.14
2019-03-15T13:42:37.944Z,11.12
2019-03-15T13:45:15.931Z,11.07
2019-03-15T13:47:56.551Z,11.08
2019-03-15T13:50:31.582Z,11.13
2019-03-15T13:53:17.741Z,11.09
2019-03-15T13:55:49.355Z,11.14
2019-03-15T13:58:20.662Z,11.12
2019-03-15T14:00:51.406Z,11.15
2019-03-15T14:03:22.297Z,11.18
2019-03-15T14:05:53.692Z,11.18
2019-03-15T14:08:26.352Z,11.21
2019-03-15T14:10:58.054Z,11.27
2019-03-15T14:13:30.285Z,11.38
2019-03-15T14:16:01.817Z,11.31
2019-03-15T14:18:33.149Z,11.24
2019-03-15T14:21:09.715Z,11.21
2019-03-15T14:23:48.944Z,11.29
2019-03-15T14:26:20.010Z,11.38
2019-03-15T14:28:51.481Z,11.34
2019-03-15T14:31:42.706Z,11.27
2019-03-15T14:34:14.122Z,11.38
2019-03-15T14:36:45.131Z,11.40
2019-03-15T14:39:18.172Z,11.46
2019-03-15T14:41:49.878Z,11.62
2019-03-15T14:44:33.516Z,11.60
2019-03-15T14:47:15.010Z,11.62
2019-03-15T14:49:57.169Z,11.70
2019-03-15T14:52:28.542Z,11.61
2019-03-15T14:55:00.486Z,11.60
2019-03-15T14:57:31.471Z,11.63
2019-03-15T15:00:02.521Z,11.52
2019-03-15T15:02:33.471Z,11.44
2019-03-15T15:05:04.770Z,11.59
2019-03-15T15:07:36.772Z,11.52
2019-03-15T15:10:12.749Z,11.52
2019-03-15T15:12:44.159Z,11.59
2019-03-15T15:15:15.657Z,11.57
2019-03-15T15:17:48.330Z,11.47
2019-03-15T15:20:21.836Z,11.54
2019-03-15T15:22:53.781Z,11.52
2019-03-15T15:25:25.134Z,11.67
2019-03-15T15:28:04.323Z,11.70
2019-03-15T15:30:29.684Z,11.62
2019-03-15T15:33:00.354Z,11.54
2019-03-15T15:35:32.058Z,11.50
2019-03-15T15:38:08.917Z,11.39
2019-03-15T15:40:43.897Z,11.29
2019-03-15T15:43:17.631Z,11.40
2019-03-15T15:45:52.673Z,11.30
2019-03-15T15:48:24.704Z,11.26
2019-03-15T15:50:56.990Z,11.36
2019-03-15T15:53:37.589Z,11.29
2019-03-15T15:56:09.305Z,11.24
2019-03-15T15:58:51.004Z,11.24
2019-03-15T16:01:22.721Z,11.30
2019-03-15T16:03:54.156Z,11.40
2019-03-15T16:06:37.152Z,11.51
2019-03-15T16:09:09.185Z,11.43
2019-03-15T16:11:40.593Z,11.41
2019-03-15T16:14:13.695Z,11.41
2019-03-15T16:16:45.324Z,11.46
2019-03-15T16:19:16.580Z,11.44
2019-03-15T16:21:49.625Z,11.53
2019-03-15T16:24:19.929Z,11.68
2019-03-15T16:26:51.033Z,11.71
2019-03-15T16:29:22.685Z,11.75
2019-03-15T16:31:53.541Z,11.81
2019-03-15T16:34:24.522Z,11.80
2019-03-15T16:36:56.217Z,11.76
2019-03-15T16:39:37.345Z,11.69
2019-03-15T16:42:08.550Z,11.68
2019-03-15T16:44:40.058Z,11.68
2019-03-15T16:47:15.546Z,11.58
2019-03-15T16:49:47.458Z,11.54
2019-03-15T16:52:18.431Z,11.53
2019-03-15T16:54:50.169Z,11.49
2019-03-15T16:57:21.460Z,11.53
2019-03-15T16:59:53.178Z,11.57
2019-03-15T17:02:23.850Z,11.51
2019-03-15T17:04:56.695Z,11.45
2019-03-15T17:07:27.447Z,11.47
2019-03-15T17:09:58.988Z,11.46
2019-03-15T17:12:29.714Z,11.34
2019-03-15T17:15:01.270Z,11.34
2019-03-15T17:17:32.338Z,11.41
2019-03-15T17:20:04.366Z,11.42
2019-03-15T17:22:35.027Z,11.39
2019-03-15T17:25:06.642Z,11.38
2019-03-15T17:27:38.757Z,11.44
2019-03-15T17:30:11.911Z,11.39
2019-03-15T17:32:43.821Z,11.48
2019-03-15T17:35:14.563Z,11.45
2019-03-15T17:37:45.970Z,11.40
2019-03-15T17:40:17.132Z,11.46
2019-03-15T17:42:48.141Z,11.47
2019-03-15T17:45:19.189Z,11.42
2019-03-15T17:47:49.709Z,11.48
2019-03-15T17:50:21.179Z,11.44
2019-03-15T17:52:57.738Z,11.38
2019-03-15T17:55:28.906Z,11.41
2019-03-15T17:58:01.003Z,11.46
2019-03-15T18:00:42.867Z,11.45
2019-03-15T18:03:20.811Z,11.46
2019-03-15T18:05:48.609Z,11.50
2019-03-15T18:08:19.617Z,11.45
2019-03-15T18:10:51.318Z,11.46
2019-03-15T18:13:23.387Z,11.51
2019-03-15T18:15:58.600Z,11.52
2019-03-15T18:18:30.086Z,11.63
2019-03-15T18:21:01.043Z,11.57
2019-03-15T18:23:32.074Z,11.62
2019-03-15T18:26:03.414Z,11.57
2019-03-15T18:28:34.757Z,11.57
2019-03-15T18:31:05.770Z,11.59
2019-03-15T18:33:54.993Z,11.51
2019-03-15T18:36:36.632Z,11.51
2019-03-15T18:39:09.932Z,11.42
2019-03-15T18:41:40.997Z,11.42
2019-03-15T18:44:12.335Z,11.31
2019-03-15T18:46:47.985Z,11.33
2019-03-15T18:49:19.039Z,11.38
2019-03-15T18:51:50.077Z,11.27
2019-03-15T18:54:21.040Z,11.31
2019-03-15T18:56:51.704Z,11.40
2019-03-15T18:59:22.751Z,11.32
2019-03-15T19:01:54.237Z,11.48
2019-03-15T19:04:24.872Z,11.46
2019-03-15T19:07:12.912Z,11.46
2019-03-15T19:09:53.357Z,11.48
2019-03-15T19:12:25.764Z,11.49
2019-03-15T19:14:57.378Z,11.43
2019-03-15T19:17:31.355Z,11.44
2019-03-15T19:20:02.946Z,11.46
2019-03-15T19:22:34.499Z,11.48
2019-03-15T19:25:11.492Z,11.39
2019-03-15T19:27:43.502Z,11.37
2019-03-15T19:30:39.560Z,11.35
2019-03-15T19:33:19.345Z,11.39
2019-03-15T19:36:00.066Z,11.42
2019-03-15T19:38:31.757Z,11.29
2019-03-15T19:41:02.947Z,11.40
2019-03-15T19:43:48.720Z,11.42
2019-03-15T19:46:20.077Z,11.50
2019-03-15T19:48:51.507Z,11.52
2019-03-15T19:51:23.539Z,11.58
2019-03-15T19:53:54.927Z,11.48
2019-03-15T19:56:26.228Z,11.56
2019-03-15T19:58:57.576Z,11.51
2019-03-15T20:01:29.411Z,11.53
2019-03-15T20:04:01.335Z,11.53
2019-03-15T20:06:39.582Z,11.53
2019-03-15T20:09:10.904Z,11.45
2019-03-15T20:11:42.145Z,11.46
2019-03-15T20:14:14.501Z,11.48
2019-03-15T20:16:45.701Z,11.50
2019-03-15T20:19:20.291Z,11.50
2019-03-15T20:21:54.785Z,11.50
2019-03-15T20:24:26.871Z,11.46
2019-03-15T20:27:00.417Z,11.41
2019-03-15T20:29:31.678Z,11.33
2019-03-15T20:32:06.223Z,11.36
2019-03-15T20:34:44.649Z,11.32
2019-03-15T20:37:27.095Z,11.36
2019-03-15T20:39:58.889Z,11.24
2019-03-15T20:42:34.179Z,11.32
2019-03-15T20:45:10.845Z,11.36
2019-03-15T20:47:44.945Z,11.40
2019-03-15T20:50:16.717Z,11.37
2019-03-15T20:52:48.325Z,11.37
2019-03-15T20:55:19.238Z,11.35
2019-03-15T20:57:50.169Z,11.29
2019-03-15T21:00:36.050Z,11.28
2019-03-15T21:03:06.384Z,11.26
2019-03-15T21:05:38.289Z,11.26
2019-03-15T21:08:18.145Z,11.22
2019-03-15T21:10:51.817Z,11.13
2019-03-15T21:13:22.866Z,11.09
2019-03-15T21:16:00.251Z,11.07
2019-03-15T21:18:35.998Z,11.07
2019-03-15T21:21:07.025Z,10.98
2019-03-15T21:23:46.023Z,10.89
2019-03-15T21:26:22.779Z,10.87
2019-03-15T21:29:00.828Z,10.82
2019-03-15T21:31:35.683Z,10.75
2019-03-15T21:34:07.543Z,10.75
2019-03-15T21:36:40.283Z,10.74
2019-03-15T21:39:28.519Z,10.73
2019-03-15T21:42:00.570Z,10.68
2019-03-15T21:44:32.135Z,10.67
2019-03-15T21:47:08.441Z,10.61
2019-03-15T21:49:42.263Z,10.61
2019-03-15T21:52:19.730Z,10.56
2019-03-15T21:55:14.216Z,10.60
2019-03-15T21:57:45.625Z,10.64
2019-03-15T22:00:17.479Z,10.57
2019-03-15T22:02:48.955Z,10.59
2019-03-15T22:05:23.532Z,10.61
2019-03-15T22:07:56.604Z,10.64
2019-03-15T22:10:29.098Z,10.73
2019-03-15T22:13:00.907Z,10.74
2019-03-15T22:15:32.946Z,10.82
2019-03-15T22:18:05.032Z,10.84
2019-03-15T22:20:38.161Z,10.85
2019-03-15T22:23:20.044Z,10.84
2019-03-15T22:25:56.830Z,10.82
2019-03-15T22:28:33.714Z,10.86
2019-03-15T22:31:16.158Z,10.85
2019-03-15T22:33:44.001Z,10.86
2019-03-15T22:36:15.953Z,10.95
2019-03-15T22:39:00.337Z,10.94
2019-03-15T22:41:31.437Z,11.05
2019-03-15T22:44:02.941Z,11.05
2019-03-15T22:46:38.565Z,11.09
2019-03-15T22:49:12.645Z,11.06
2019-03-15T22:51:44.186Z,11.05
2019-03-15T22:54:15.730Z,11.06
2019-03-15T22:56:46.399Z,11.09
2019-03-15T22:59:17.043Z,11.02
2019-03-15T23:01:48.348Z,11.11
2019-03-15T23:04:19.542Z,11.20
2019-03-15T23:06:51.471Z,11.15
2019-03-15T23:09:30.485Z,11.16
2019-03-15T23:12:01.142Z,11.11
2019-03-15T23:14:32.687Z,11.17
2019-03-15T23:17:07.007Z,11.18
2019-03-15T23:19:38.715Z,11.06
2019-03-15T23:22:09.459Z,10.99
2019-03-15T23:24:46.766Z,11.01
2019-03-15T23:27:22.794Z,10.91
2019-03-15T23:29:59.352Z,10.89
2019-03-15T23:32:36.198Z,10.94
2019-03-15T23:35:08.983Z,10.86
2019-03-15T23:37:42.946Z,10.86
2019-03-15T23:40:13.572Z,10.81
2019-03-15T23:42:45.331Z,10.77
2019-03-15T23:45:16.400Z,10.67
2019-03-15T23:47:48.612Z,10.65
2019-03-15T23:50:19.637Z,10.65
2019-03-15T23:52:53.626Z,10.62
2019-03-15T23:55:27.724Z,10.57
2019-03-15T23:57:58.387Z,10.60
